createdAt,value
2022-11-28T00:01:24.015Z,0.77
2022-11-28T00:03:51.542Z,0.57
2022-11-28T00:06:19.300Z,0.73
2022-11-28T00:08:47.138Z,0.50
2022-11-28T00:11:16.608Z,0.80
2022-11-28T00:13:44.642Z,0.67
2022-11-28T00:16:15.138Z,0.90
2022-11-28T00:18:42.660Z,0.60
2022-11-28T00:21:11.647Z,0.50
2022-11-28T00:23:39.127Z,0.67
2022-11-28T00:26:09.155Z,0.87
2022-11-28T00:28:36.924Z,0.70
2022-11-28T00:31:04.658Z,0.70
2022-11-28T00:33:35.702Z,1.00
2022-11-28T00:36:04.547Z,0.70
2022-11-28T00:38:32.396Z,0.80
2022-11-28T00:41:03.733Z,0.80
2022-11-28T00:43:31.199Z,0.70
2022-11-28T00:45:58.740Z,0.73
2022-11-28T00:48:26.542Z,0.60
2022-11-28T00:50:54.322Z,0.60
2022-11-28T00:53:22.013Z,0.60
2022-11-28T00:55:49.414Z,0.63
2022-11-28T00:58:16.880Z,0.50
2022-11-28T01:00:44.272Z,0.60
2022-11-28T01:03:11.719Z,0.60
2022-11-28T01:05:43.519Z,0.53
2022-11-28T01:08:11.488Z,0.60
2022-11-28T01:10:46.629Z,0.50
2022-11-28T01:13:13.961Z,0.50
2022-11-28T01:15:42.045Z,0.60
2022-11-28T01:18:09.829Z,0.60
2022-11-28T01:20:37.429Z,0.57
2022-11-28T01:23:05.037Z,0.60
2022-11-28T01:25:35.242Z,0.70
2022-11-28T01:28:02.580Z,0.70
2022-11-28T01:30:29.950Z,0.40
2022-11-28T01:32:57.321Z,0.40
2022-11-28T01:35:24.604Z,0.63
2022-11-28T01:37:51.970Z,0.50
2022-11-28T01:40:19.448Z,0.40
2022-11-28T01:42:46.806Z,0.43
2022-11-28T01:45:29.384Z,0.37
2022-11-28T01:47:58.045Z,0.37
2022-11-28T01:50:25.744Z,0.30
2022-11-28T01:52:55.070Z,0.30
2022-11-28T01:55:24.998Z,0.50
2022-11-28T01:57:52.881Z,0.30
2022-11-28T02:00:21.120Z,0.30
2022-11-28T02:02:50.239Z,0.30
2022-11-28T02:05:18.754Z,0.30
2022-11-28T02:07:47.184Z,0.30
2022-11-28T02:10:18.521Z,0.20
2022-11-28T02:13:01.272Z,0.30
2022-11-28T02:15:28.663Z,0.20
2022-11-28T02:18:02.089Z,0.20
2022-11-28T02:20:35.515Z,0.10
2022-11-28T02:23:02.786Z,0.30
2022-11-28T02:26:08.425Z,0.30
2022-11-28T02:28:55.602Z,0.53
2022-11-28T02:31:41.553Z,0.23
2022-11-28T02:34:15.522Z,0.20
2022-11-28T02:36:48.120Z,0.13
2022-11-28T02:39:21.978Z,0.27
2022-11-28T02:42:09.722Z,0.30
2022-11-28T02:44:37.281Z,0.33
2022-11-28T02:47:13.041Z,0.40
2022-11-28T02:49:40.549Z,0.50
2022-11-28T02:52:10.679Z,0.20
2022-11-28T02:54:39.340Z,0.23
2022-11-28T02:57:06.919Z,0.30
2022-11-28T02:59:40.358Z,0.37
2022-11-28T03:02:14.591Z,0.40
2022-11-28T03:04:47.885Z,0.33
2022-11-28T03:07:26.475Z,0.30
2022-11-28T03:10:03.280Z,0.40
2022-11-28T03:12:30.635Z,0.53
2022-11-28T03:15:05.884Z,1.00
2022-11-28T03:17:41.199Z,1.03
2022-11-28T03:20:16.679Z,1.20
2022-11-28T03:22:59.520Z,1.30
2022-11-28T03:25:37.559Z,1.00
2022-11-28T03:28:28.279Z,1.40
2022-11-28T03:31:04.154Z,1.60
2022-11-28T03:33:33.559Z,0.90
2022-11-28T03:36:04.999Z,1.20
2022-11-28T03:38:38.358Z,1.67
2022-11-28T03:41:10.449Z,1.40
2022-11-28T03:43:41.640Z,1.37
2022-11-28T03:46:12.318Z,1.27
2022-11-28T03:48:41.841Z,1.50
2022-11-28T03:51:09.159Z,1.60
2022-11-28T03:53:46.198Z,1.17
2022-11-28T03:56:19.439Z,1.30
2022-11-28T03:59:06.958Z,1.33
2022-11-28T04:01:52.763Z,1.20
2022-11-28T04:04:20.158Z,1.73
2022-11-28T04:06:53.279Z,1.27
2022-11-28T04:09:39.280Z,1.20
2022-11-28T04:12:21.761Z,1.00
2022-11-28T04:14:52.718Z,1.50
2022-11-28T04:17:23.238Z,1.70
2022-11-28T04:19:52.355Z,1.23
2022-11-28T04:22:29.853Z,1.23
2022-11-28T04:25:00.718Z,1.23
2022-11-28T04:27:30.319Z,1.43
2022-11-28T04:29:59.879Z,2.40
2022-11-28T04:32:27.887Z,1.40
2022-11-28T04:34:58.079Z,1.10
2022-11-28T04:37:26.445Z,1.00
2022-11-28T04:39:55.904Z,1.23
2022-11-28T04:42:36.323Z,1.20
2022-11-28T04:45:15.661Z,1.00
2022-11-28T04:47:43.758Z,1.00
2022-11-28T04:50:11.680Z,0.83
2022-11-28T04:52:48.283Z,0.73
2022-11-28T04:55:54.079Z,0.70
2022-11-28T04:58:42.285Z,0.60
2022-11-28T05:01:11.941Z,0.80
2022-11-28T05:03:42.747Z,0.63
2022-11-28T05:06:10.723Z,1.03
2022-11-28T05:08:38.158Z,1.40
2022-11-28T05:11:05.639Z,0.97
2022-11-28T05:13:33.000Z,0.80
2022-11-28T05:16:04.502Z,0.90
2022-11-28T05:18:31.881Z,0.70
2022-11-28T05:21:00.000Z,0.50
2022-11-28T05:23:27.481Z,0.70
2022-11-28T05:25:54.918Z,0.50
2022-11-28T05:28:22.283Z,0.80
2022-11-28T05:30:59.166Z,0.80
2022-11-28T05:33:26.521Z,0.73
2022-11-28T05:35:53.886Z,0.93
2022-11-28T05:38:21.239Z,0.63
2022-11-28T05:40:48.682Z,1.03
2022-11-28T05:43:16.079Z,1.10
2022-11-28T05:45:43.791Z,1.00
2022-11-28T05:48:11.202Z,0.73
2022-11-28T05:50:42.321Z,0.60
2022-11-28T05:53:09.838Z,0.70
2022-11-28T05:55:38.962Z,0.50
2022-11-28T05:58:06.726Z,0.60
2022-11-28T06:00:34.161Z,0.50
2022-11-28T06:03:01.955Z,0.50
2022-11-28T06:05:42.307Z,0.50
2022-11-28T06:08:12.417Z,0.60
2022-11-28T06:10:40.120Z,0.60
2022-11-28T06:13:07.537Z,0.50
2022-11-28T06:15:37.866Z,0.50
2022-11-28T06:18:06.234Z,0.70
2022-11-28T06:20:35.958Z,0.73
2022-11-28T06:23:03.323Z,0.53
2022-11-28T06:25:30.721Z,0.67
2022-11-28T06:27:58.128Z,0.53
2022-11-28T06:30:25.725Z,0.50
2022-11-28T06:32:53.161Z,0.50
2022-11-28T06:35:20.832Z,0.50
2022-11-28T06:37:48.119Z,0.50
2022-11-28T06:40:15.639Z,0.50
2022-11-28T06:42:43.030Z,0.70
2022-11-28T06:45:10.684Z,0.67
2022-11-28T06:47:38.047Z,0.73
2022-11-28T06:50:05.642Z,0.60
2022-11-28T06:52:32.961Z,0.90
2022-11-28T06:55:00.238Z,1.03
2022-11-28T06:57:27.804Z,1.70
2022-11-28T06:59:55.366Z,1.20
2022-11-28T07:02:25.296Z,1.10
2022-11-28T07:04:52.849Z,0.87
2022-11-28T07:07:20.293Z,0.70
2022-11-28T07:09:47.684Z,0.70
2022-11-28T07:12:15.163Z,0.67
2022-11-28T07:14:42.613Z,0.70
2022-11-28T07:17:09.960Z,1.13
2022-11-28T07:19:38.204Z,1.57
2022-11-28T07:22:05.561Z,0.80
2022-11-28T07:24:32.925Z,1.13
2022-11-28T07:27:00.278Z,1.70
2022-11-28T07:29:35.813Z,1.70
2022-11-28T07:32:05.817Z,2.03
2022-11-28T07:34:33.403Z,2.27
2022-11-28T07:37:00.918Z,2.23
2022-11-28T07:39:28.244Z,2.23
2022-11-28T07:41:55.924Z,2.43
2022-11-28T07:44:23.317Z,2.20
2022-11-28T07:46:50.879Z,2.23
2022-11-28T07:49:18.282Z,2.33
2022-11-28T07:51:45.642Z,2.30
2022-11-28T07:54:12.998Z,2.27
2022-11-28T07:57:10.884Z,2.13
2022-11-28T07:59:27.820Z,2.10
2022-11-28T08:01:55.318Z,2.07
2022-11-28T08:04:23.255Z,1.90
2022-11-28T08:06:50.721Z,2.33
2022-11-28T08:09:18.123Z,2.47
2022-11-28T08:11:45.442Z,2.50
2022-11-28T08:14:14.240Z,2.20
2022-11-28T08:16:44.985Z,2.03
2022-11-28T08:19:12.598Z,2.00
2022-11-28T08:21:39.958Z,2.10
2022-11-28T08:24:08.264Z,2.87
2022-11-28T08:26:36.927Z,2.80
2022-11-28T08:29:04.601Z,3.23
2022-11-28T08:31:36.203Z,2.93
2022-11-28T08:34:05.681Z,2.50
2022-11-28T08:36:33.519Z,2.73
2022-11-28T08:39:24.099Z,4.57
2022-11-28T08:41:49.862Z,4.67
2022-11-28T08:44:17.280Z,2.90
2022-11-28T08:46:44.721Z,2.33
2022-11-28T08:49:12.239Z,2.60
2022-11-28T08:51:39.639Z,2.60
2022-11-28T08:54:07.047Z,2.97
2022-11-28T08:56:35.161Z,2.80
2022-11-28T08:59:02.521Z,2.60
2022-11-28T09:01:30.217Z,3.57
2022-11-28T09:03:57.957Z,2.30
2022-11-28T09:06:25.880Z,2.30
2022-11-28T09:08:54.220Z,2.53
2022-11-28T09:11:22.800Z,2.50
2022-11-28T09:13:50.244Z,2.53
2022-11-28T09:16:17.857Z,2.30
2022-11-28T09:18:45.322Z,1.93
2022-11-28T09:21:13.369Z,2.37
2022-11-28T09:23:41.845Z,2.50
2022-11-28T09:26:10.518Z,2.23
2022-11-28T09:28:37.981Z,2.43
2022-11-28T09:31:06.541Z,2.40
2022-11-28T09:33:34.122Z,2.40
2022-11-28T09:36:05.682Z,1.90
2022-11-28T09:38:33.163Z,2.40
2022-11-28T09:41:01.879Z,3.07
2022-11-28T09:43:29.134Z,2.00
2022-11-28T09:45:57.129Z,2.10
2022-11-28T09:48:24.684Z,2.13
2022-11-28T09:50:53.721Z,2.00
2022-11-28T09:53:21.043Z,1.67
2022-11-28T09:55:56.961Z,2.27
2022-11-28T09:58:24.282Z,1.97
2022-11-28T10:00:58.737Z,1.67
2022-11-28T10:03:46.267Z,1.80
2022-11-28T10:06:16.646Z,2.07
2022-11-28T10:08:56.399Z,2.00
2022-11-28T10:11:26.760Z,2.13
2022-11-28T10:14:08.457Z,2.40
2022-11-28T10:16:36.273Z,2.00
2022-11-28T10:19:25.622Z,2.67
2022-11-28T10:21:59.633Z,2.37
2022-11-28T10:24:35.559Z,2.00
2022-11-28T10:27:04.920Z,1.80
2022-11-28T10:29:38.416Z,1.70
2022-11-28T10:32:06.439Z,2.23
2022-11-28T10:34:43.683Z,2.80
2022-11-28T10:37:21.483Z,3.10
2022-11-28T10:39:49.526Z,3.33
2022-11-28T10:42:24.484Z,2.10
2022-11-28T10:44:51.800Z,2.20
2022-11-28T10:47:24.940Z,2.33
2022-11-28T10:49:59.202Z,3.10
2022-11-28T10:52:40.766Z,2.10
2022-11-28T10:55:30.846Z,1.90
2022-11-28T10:58:16.729Z,1.80
2022-11-28T11:00:45.601Z,1.60
2022-11-28T11:03:14.680Z,1.50
2022-11-28T11:05:42.579Z,1.30
2022-11-28T11:08:09.884Z,1.60
2022-11-28T11:10:42.362Z,2.33
2022-11-28T11:13:19.610Z,1.80
2022-11-28T11:15:48.273Z,1.53
2022-11-28T11:18:32.239Z,1.60
2022-11-28T11:21:23.042Z,1.50
2022-11-28T11:23:51.076Z,1.70
2022-11-28T11:26:26.725Z,1.40
2022-11-28T11:28:55.065Z,1.77
2022-11-28T11:31:45.642Z,1.87
2022-11-28T11:34:20.615Z,1.63
2022-11-28T11:36:50.241Z,1.83
2022-11-28T11:39:21.363Z,1.70
2022-11-28T11:41:51.680Z,1.57
2022-11-28T11:44:34.718Z,1.50
2022-11-28T11:47:11.607Z,1.30
2022-11-28T11:49:45.469Z,1.50
2022-11-28T11:52:13.202Z,1.97
2022-11-28T12:32:14.522Z,1.13
2022-11-28T12:34:44.690Z,1.47
2022-11-28T12:41:06.803Z,1.33
2022-11-28T12:43:53.049Z,1.20
2022-11-28T12:46:26.233Z,1.60
2022-11-28T12:48:53.833Z,1.20
2022-11-28T12:51:36.843Z,1.10
2022-11-28T12:54:13.001Z,0.97
2022-11-28T12:56:49.699Z,1.10
2022-11-28T12:59:31.321Z,1.17
2022-11-28T13:02:13.529Z,0.90
2022-11-28T13:04:58.840Z,1.30
2022-11-28T13:07:42.659Z,1.30
2022-11-28T13:10:13.225Z,5.40
2022-11-28T13:12:46.967Z,3.33
2022-11-28T13:15:32.933Z,1.87
2022-11-28T13:18:06.200Z,2.60
2022-11-28T13:20:42.396Z,1.30
2022-11-28T13:23:15.446Z,1.40
2022-11-28T13:25:42.803Z,1.10
2022-11-28T13:28:10.199Z,1.30
2022-11-28T13:31:03.730Z,0.93
2022-11-28T13:33:39.774Z,1.10
2022-11-28T13:36:09.220Z,1.27
2022-11-28T13:39:11.799Z,1.10
2022-11-28T13:42:28.230Z,1.40
2022-11-28T13:45:00.145Z,1.20
2022-11-28T13:47:32.522Z,1.03
2022-11-28T13:50:18.603Z,1.40
2022-11-28T13:52:45.981Z,1.33
2022-11-28T13:55:31.843Z,1.50
2022-11-28T13:57:59.204Z,1.80
2022-11-28T14:00:27.927Z,2.13
2022-11-28T14:02:58.406Z,2.40
2022-11-28T14:05:26.524Z,2.60
2022-11-28T14:07:56.090Z,2.60
2022-11-28T14:10:29.803Z,2.87
2022-11-28T14:13:15.888Z,3.00
2022-11-28T14:15:54.504Z,3.33
2022-11-28T14:18:55.126Z,3.60
2022-11-28T14:21:27.001Z,3.37
2022-11-28T14:24:06.046Z,3.20
2022-11-28T14:26:35.603Z,3.40
2022-11-28T14:29:04.202Z,3.20
2022-11-28T14:31:47.413Z,3.20
2022-11-28T14:34:41.155Z,3.00
2022-11-28T14:37:21.402Z,3.00
2022-11-28T14:39:49.641Z,3.57
2022-11-28T14:42:44.110Z,3.17
2022-11-28T14:45:24.211Z,3.30
2022-11-28T14:48:27.008Z,3.40
2022-11-28T14:51:00.868Z,3.20
2022-11-28T14:53:35.403Z,3.17
2022-11-28T14:56:22.532Z,3.80
2022-11-28T14:58:50.684Z,3.63
2022-11-28T15:01:44.897Z,3.53
2022-11-28T15:04:31.121Z,3.93
2022-11-28T15:06:59.882Z,4.10
2022-11-28T15:09:47.480Z,3.80
2022-11-28T15:12:22.320Z,3.90
2022-11-28T15:14:52.680Z,3.63
2022-11-28T15:17:22.322Z,3.33
2022-11-28T15:19:50.811Z,4.10
2022-11-28T15:22:31.958Z,3.33
2022-11-28T15:24:59.404Z,3.60
2022-11-28T15:27:27.909Z,3.50
2022-11-28T15:29:57.522Z,3.07
2022-11-28T15:32:25.281Z,3.50
2022-11-28T15:35:06.420Z,2.80
2022-11-28T15:37:37.121Z,2.77
2022-11-28T15:40:06.175Z,3.33
2022-11-28T15:42:38.680Z,3.27
2022-11-28T15:45:06.131Z,3.33
2022-11-28T15:47:33.540Z,3.40
2022-11-28T15:50:04.043Z,3.20
2022-11-28T15:52:32.122Z,3.30
2022-11-28T15:54:59.729Z,2.90
2022-11-28T15:57:28.798Z,3.33
2022-11-28T15:59:57.085Z,3.10
2022-11-28T16:02:30.542Z,3.03
2022-11-28T16:05:09.722Z,2.97
2022-11-28T16:07:41.953Z,3.20
2022-11-28T16:10:21.095Z,3.17
2022-11-28T16:12:48.803Z,4.00
2022-11-28T16:15:20.442Z,2.80
2022-11-28T16:17:47.798Z,2.80
2022-11-28T16:20:24.887Z,3.43
2022-11-28T16:22:57.083Z,3.37
2022-11-28T16:25:25.444Z,2.97
2022-11-28T16:27:53.523Z,3.73
2022-11-28T16:30:24.091Z,3.00
2022-11-28T16:32:52.523Z,3.40
2022-11-28T16:35:40.722Z,3.50
2022-11-28T16:38:19.380Z,3.37
2022-11-28T16:40:46.721Z,3.43
2022-11-28T16:43:46.163Z,3.13
2022-11-28T16:46:20.293Z,2.83
2022-11-28T16:48:49.411Z,3.07
2022-11-28T16:51:22.841Z,2.90
2022-11-28T16:53:51.361Z,3.13
2022-11-28T16:56:25.964Z,3.40
2022-11-28T16:58:59.800Z,2.70
2022-11-28T17:01:29.242Z,3.00
2022-11-28T17:03:57.982Z,2.47
2022-11-28T17:06:29.007Z,2.90
2022-11-28T17:08:57.042Z,2.93
2022-11-28T17:11:27.400Z,2.90
2022-11-28T17:13:57.537Z,2.50
2022-11-28T17:16:26.311Z,2.77
2022-11-28T17:18:54.002Z,2.67
2022-11-28T17:21:27.761Z,3.10
2022-11-28T17:23:55.041Z,3.10
2022-11-28T17:26:22.472Z,3.77
2022-11-28T17:28:49.963Z,3.10
2022-11-28T17:31:18.118Z,2.80
2022-11-28T17:33:45.480Z,3.53
2022-11-28T17:36:13.044Z,4.10
2022-11-28T17:38:40.360Z,8.10
2022-11-28T17:41:10.866Z,8.30
2022-11-28T17:43:39.326Z,5.77
2022-11-28T17:46:07.012Z,6.23
2022-11-28T17:48:34.682Z,5.53
2022-11-28T17:51:04.765Z,4.77
2022-11-28T17:53:32.040Z,5.13
2022-11-28T17:56:00.001Z,4.33
2022-11-28T17:58:28.881Z,4.00
2022-11-28T18:01:00.532Z,3.63
2022-11-28T18:03:29.126Z,3.10
2022-11-28T18:05:56.525Z,3.30
2022-11-28T18:08:23.762Z,3.60
2022-11-28T18:10:51.159Z,3.57
2022-11-28T18:13:18.598Z,3.40
2022-11-28T18:15:47.699Z,2.57
2022-11-28T18:18:15.160Z,2.80
2022-11-28T18:20:42.560Z,2.70
2022-11-28T18:23:11.199Z,4.90
2022-11-28T18:25:41.558Z,5.20
2022-11-28T18:28:08.841Z,4.33
2022-11-28T18:30:36.680Z,6.03
2022-11-28T18:33:04.123Z,3.83
2022-11-28T18:35:31.558Z,3.60
2022-11-28T18:38:00.964Z,3.97
2022-11-28T18:40:28.721Z,4.27
2022-11-28T18:42:56.122Z,4.23
2022-11-28T18:45:23.763Z,3.97
2022-11-28T18:47:53.754Z,3.83
2022-11-28T18:50:23.400Z,4.50
2022-11-28T18:52:51.679Z,4.73
2022-11-28T18:55:20.438Z,4.30
2022-11-28T18:57:47.839Z,3.63
2022-11-28T19:00:15.599Z,3.87
2022-11-28T19:02:43.002Z,3.73
2022-11-28T19:05:10.401Z,7.57
2022-11-28T19:07:37.917Z,20.50
2022-11-28T19:10:05.563Z,20.53
2022-11-28T19:12:33.088Z,24.20
2022-11-28T19:15:02.607Z,25.17
2022-11-28T19:17:30.325Z,23.13
2022-11-28T19:19:57.725Z,12.57
2022-11-28T19:22:25.164Z,4.37
2022-11-28T19:24:52.601Z,3.30
2022-11-28T19:27:19.961Z,3.13
2022-11-28T19:29:47.553Z,3.17
2022-11-28T19:32:15.159Z,2.87
2022-11-28T19:34:42.562Z,2.80
2022-11-28T19:37:09.926Z,2.47
2022-11-28T19:39:37.360Z,3.17
2022-11-28T19:42:04.760Z,3.50
2022-11-28T19:44:32.127Z,3.60
2022-11-28T19:46:59.562Z,3.57
2022-11-28T19:49:27.406Z,4.30
2022-11-28T19:51:54.841Z,3.13
2022-11-28T19:54:22.412Z,3.53
2022-11-28T19:56:50.135Z,3.73
2022-11-28T19:59:18.040Z,4.03
2022-11-28T20:01:48.373Z,4.50
2022-11-28T20:04:15.881Z,4.57
2022-11-28T20:06:43.407Z,3.77
2022-11-28T20:09:11.760Z,3.20
2022-11-28T20:11:39.560Z,3.30
2022-11-28T20:14:08.762Z,2.77
2022-11-28T20:16:37.618Z,3.73
2022-11-28T20:19:06.281Z,3.53
2022-11-28T20:21:33.683Z,3.13
2022-11-28T20:24:04.332Z,3.20
2022-11-28T20:26:33.042Z,2.60
2022-11-28T20:29:00.480Z,2.63
2022-11-28T20:31:36.248Z,2.87
2022-11-28T20:34:06.887Z,2.53
2022-11-28T20:36:34.401Z,2.83
2022-11-28T20:39:01.851Z,2.77
2022-11-28T20:41:29.808Z,3.17
2022-11-28T20:43:57.641Z,2.17
2022-11-28T20:46:32.891Z,2.37
2022-11-28T20:49:01.601Z,2.73
2022-11-28T20:51:30.121Z,2.80
2022-11-28T20:53:58.601Z,2.90
2022-11-28T20:56:29.441Z,2.60
2022-11-28T20:58:58.650Z,2.50
2022-11-28T21:01:27.119Z,2.80
2022-11-28T21:03:54.643Z,2.60
2022-11-28T21:06:22.322Z,3.03
2022-11-28T21:08:49.761Z,2.53
2022-11-28T21:11:50.154Z,2.50
2022-11-28T21:14:08.963Z,2.80
2022-11-28T21:16:36.491Z,3.00
2022-11-28T21:19:05.440Z,2.77
2022-11-28T21:21:33.761Z,2.67
2022-11-28T21:24:03.203Z,2.63
2022-11-28T21:26:32.301Z,2.70
2022-11-28T21:29:06.024Z,2.07
2022-11-28T21:31:35.598Z,2.60
2022-11-28T21:34:05.440Z,2.70
2022-11-28T21:36:32.842Z,2.60
2022-11-28T21:39:01.280Z,2.47
2022-11-28T21:41:30.338Z,2.33
2022-11-28T21:43:57.879Z,2.53
2022-11-28T21:46:25.600Z,2.60
2022-11-28T21:48:53.668Z,2.53
2022-11-28T21:51:25.082Z,2.17
2022-11-28T21:53:52.543Z,2.30
2022-11-28T21:56:19.998Z,2.17
2022-11-28T21:58:47.442Z,2.10
2022-11-28T22:01:15.216Z,1.90
2022-11-28T22:03:43.963Z,1.70
2022-11-28T22:06:14.085Z,2.27
2022-11-28T22:08:41.480Z,2.33
2022-11-28T22:11:11.253Z,2.30
2022-11-28T22:13:39.079Z,2.17
2022-11-28T22:16:10.966Z,1.67
2022-11-28T22:18:38.441Z,3.10
2022-11-28T22:21:28.646Z,2.30
2022-11-28T22:23:54.566Z,2.70
2022-11-28T22:26:22.004Z,2.13
2022-11-28T22:28:53.566Z,2.17
2022-11-28T22:31:21.624Z,2.50
2022-11-28T22:33:50.039Z,2.20
2022-11-28T22:36:19.760Z,2.33
2022-11-28T22:38:47.486Z,2.23
2022-11-28T22:41:24.818Z,2.13
2022-11-28T22:43:56.601Z,2.33
2022-11-28T22:46:24.163Z,2.20
2022-11-28T22:48:52.179Z,2.10
2022-11-28T22:51:24.408Z,2.20
2022-11-28T22:53:58.853Z,2.07
2022-11-28T22:56:26.927Z,2.30
2022-11-28T22:58:54.371Z,1.80
2022-11-28T23:01:24.192Z,2.10
2022-11-28T23:03:52.242Z,2.03
2022-11-28T23:06:24.240Z,2.17
2022-11-28T23:08:52.405Z,2.50
2022-11-28T23:11:22.002Z,1.83
2022-11-28T23:13:50.361Z,2.03
2022-11-28T23:16:25.485Z,2.00
2022-11-28T23:18:54.561Z,2.07
2022-11-28T23:21:23.721Z,2.00
2022-11-28T23:23:51.201Z,2.17
2022-11-28T23:26:23.079Z,1.67
2022-11-28T23:28:50.878Z,1.97
2022-11-28T23:31:19.560Z,2.00
2022-11-28T23:33:47.204Z,2.03
2022-11-28T23:36:20.519Z,1.87
2022-11-28T23:38:48.724Z,1.70
2022-11-28T23:41:16.321Z,1.80
2022-11-28T23:43:45.081Z,1.90
2022-11-28T23:46:13.029Z,1.53
2022-11-28T23:48:40.841Z,1.50
2022-11-28T23:51:08.602Z,2.20
2022-11-28T23:53:36.239Z,1.70
2022-11-28T23:56:04.844Z,1.90
2022-11-28T23:58:32.398Z,1.60
